York, PA (17404)

06:11 EDT le 21 août 2014 (GMT -0400)
Brandywine Woods-Cousler Park | Change Station
CLOSE
Current Station
Stations météorologiques personnelles
Location: York, PA
Altitude: 528 ft
Stations météo à proximité

Alt. 528 ft 40.00 °N, 76.76 °W | Updated 2 minutes ago

Clear
Ciel dégagé
65.7 ° F
Paraît 65.7 ° F
N
0.0
Vent Variable Vent de NNE

Aujourd'hui
Haut(e) -- | Bas -- ° F
--% Risque de précip.
Hier
Haut(e) -- | Bas -- ° F
Precip. -- pouce
6:24 AM 7:55 PM
Lune descendante, 15% visible
Pression 30.01 pouce
Visibilité 5.0 Miles terrestres
Nuages Ciel dégagé
Point de rosée 64 ° F
Humidité 96%
Précipitations 0.00 pouce
Profondeur de la couche neigeuse Non disponible.
UV 0 sur 12
Pollen 9.40 sur 12
Ozone Bon
PM2.5 Moyen
Flu Activity Non disponible.
METAR KTHV 210953Z AUTO 00000KT 5SM BR CLR 16/16 A3001 RMK AO2 SLP163 T01610161

More Conditions Fewer Conditions

Pression 30.01 pouce
Visibilité 5.0 Miles terrestres
Nuages Ciel dégagé
Point de rosée 64 ° F
Humidité 96%
Précipitations 0.00 pouce
Profondeur de la couche neigeuse Non disponible.
UV 0 sur 12
Pollen 9.40 sur 12
Ozone Bon
PM2.5 Moyen
Flu Activity Non disponible.
METAR KTHV 210953Z AUTO 00000KT 5SM BR CLR 16/16 A3001 RMK AO2 SLP163 T01610161

More Conditions Fewer Conditions

10-Day Weather Forecast

Almanac

Astronomie

Aug. 21, 2014 Lever Coucher
Temps réel 06:24 EDT 19:55 EDT
Crépuscule civil 05:55 EDT 20:23 EDT
Crépuscule nautique 05:21 EDT 20:57 EDT
Crépuscule astronomique 04:45 EDT 21:34 EDT
Lune 02:52 EDT 17:22 EDT
Durée de lumière visible 14h 27m
Longueur du jour
13h 30m
Tomorrow will be 2m 25s shorter.
Lune descendante, 15% of the Moon is Illuminated
Aujourd'hui
Lune descendante
août 25
Nouveau
Sep 2
Premier quartier
Sep 8
Pleine lune
Sep 15
Dernier quartier

Extrêmes aujourd'hui

State Highs State Lows

Community

WunderPhotos

Upload Photos

1,745,871 Photos téléchargées !

Nearby

Qualité de l'air

  Qualité de l'air Indice de la qualité de l'air Polluant
Hier Moyen
PM2.5
Hier Bon
OZONE
Actuel Moyen
PM2.5
Actuel Bon
OZONE
jeudi Moyen
PM2.5
jeudi Bon
OZONE
vendredi Moyen
PM2.5
vendredi Bon
OZONE

Épaisseur de neige

Station Depth Altitude
Pas de nouvelles chutes de neige

Activité sismique

Ville Distance Mag. Time & Date
No recent earthquake activity has been reported nearby.
Minimum magnitude displayed is 2.5.

Températures des eaux côtières

Lieu Température
Aucun rapport de station

Stations météo à proximité